Weather at Los Angeles International Airport

Public forecast

Using degrees Fahrenheit for public forecast. Weather courtesy of forecast.io.

Current aviation weather report (METAR) for Los Angeles International Airport

Retrieved 2021/05/16 05:53 UTC (47 minutes ago):

KLAX 160553Z 25008KT 10SM SCT024 BKN031 16/10 A2995 RMK AO2 SLP139 T01560100 10178 20156 51010

Aviation forecast (TAF) for Los Angeles International Airport

Retrieved 2021/05/16 06:45 UTC (0 seconds ago):

TAF KLAX 160543Z 1606/1712 26010KT P6SM BKN025 OVC030 FM160800 25008KT P6SM -DZ OVC025 FM161600 25008KT P6SM SCT025 OVC035 FM162100 26014KT P6SM SCT040 FM170300 26008KT P6SM BKN035